sensor_id;sensor_type;location;lat;lon;timestamp;P1;durP1;ratioP1;P2;durP2;ratioP2
51459;SDS011;37534;39.772;2.718;2023-04-07T00:02:28;9.73;;;2.58;;
51459;SDS011;37534;39.772;2.718;2023-04-07T00:04:53;4.03;;;3.28;;
51459;SDS011;37534;39.772;2.718;2023-04-07T00:07:21;4.78;;;3.65;;
51459;SDS011;37534;39.772;2.718;2023-04-07T00:09:46;5.15;;;3.72;;
51459;SDS011;37534;39.772;2.718;2023-04-07T00:12:12;6.13;;;4.53;;
51459;SDS011;37534;39.772;2.718;2023-04-07T00:14:38;3.63;;;3.05;;
51459;SDS011;37534;39.772;2.718;2023-04-07T00:17:03;5.10;;;4.00;;
51459;SDS011;37534;39.772;2.718;2023-04-07T00:19:28;5.90;;;3.97;;
51459;SDS011;37534;39.772;2.718;2023-04-07T00:21:54;5.15;;;4.65;;
51459;SDS011;37534;39.772;2.718;2023-04-07T00:24:20;7.43;;;4.43;;
51459;SDS011;37534;39.772;2.718;2023-04-07T00:26:45;5.40;;;4.90;;
51459;SDS011;37534;39.772;2.718;2023-04-07T00:29:11;4.95;;;4.45;;
51459;SDS011;37534;39.772;2.718;2023-04-07T00:31:36;5.90;;;4.35;;
51459;SDS011;37534;39.772;2.718;2023-04-07T00:34:01;4.93;;;4.53;;
51459;SDS011;37534;39.772;2.718;2023-04-07T00:36:27;4.70;;;4.30;;
51459;SDS011;37534;39.772;2.718;2023-04-07T00:38:53;8.40;;;4.65;;
51459;SDS011;37534;39.772;2.718;2023-04-07T00:41:18;4.80;;;4.30;;
51459;SDS011;37534;39.772;2.718;2023-04-07T00:43:44;6.13;;;5.40;;
51459;SDS011;37534;39.772;2.718;2023-04-07T00:46:10;7.65;;;6.75;;
51459;SDS011;37534;39.772;2.718;2023-04-07T00:48:35;6.80;;;4.88;;
51459;SDS011;37534;39.772;2.718;2023-04-07T00:51:01;4.10;;;3.72;;
51459;SDS011;37534;39.772;2.718;2023-04-07T00:53:28;4.22;;;3.55;;
51459;SDS011;37534;39.772;2.718;2023-04-07T00:55:53;8.02;;;3.28;;
51459;SDS011;37534;39.772;2.718;2023-04-07T00:58:19;3.38;;;3.00;;
51459;SDS011;37534;39.772;2.718;2023-04-07T01:00:48;6.05;;;3.58;;
51459;SDS011;37534;39.772;2.718;2023-04-07T01:06:17;2.28;;;2.17;;
51459;SDS011;37534;39.772;2.718;2023-04-07T01:11:40;8.00;;;3.05;;
51459;SDS011;37534;39.772;2.718;2023-04-07T01:14:08;3.65;;;2.88;;
51459;SDS011;37534;39.772;2.718;2023-04-07T01:16:41;6.55;;;3.25;;
51459;SDS011;37534;39.772;2.718;2023-04-07T01:22:16;3.17;;;2.88;;
51459;SDS011;37534;39.772;2.718;2023-04-07T01:27:47;4.13;;;2.63;;
51459;SDS011;37534;39.772;2.718;2023-04-07T01:30:09;4.07;;;2.30;;
51459;SDS011;37534;39.772;2.718;2023-04-07T01:32:38;2.15;;;2.05;;
51459;SDS011;37534;39.772;2.718;2023-04-07T01:35:06;2.10;;;2.00;;
51459;SDS011;37534;39.772;2.718;2023-04-07T01:37:36;4.15;;;2.70;;
51459;SDS011;37534;39.772;2.718;2023-04-07T01:40:03;3.17;;;2.65;;
51459;SDS011;37534;39.772;2.718;2023-04-07T01:42:32;5.10;;;3.03;;
51459;SDS011;37534;39.772;2.718;2023-04-07T01:44:58;10.02;;;3.83;;
51459;SDS011;37534;39.772;2.718;2023-04-07T01:47:26;8.82;;;3.15;;
51459;SDS011;37534;39.772;2.718;2023-04-07T01:49:56;3.45;;;3.15;;
51459;SDS011;37534;39.772;2.718;2023-04-07T01:52:23;13.13;;;3.50;;
51459;SDS011;37534;39.772;2.718;2023-04-07T01:54:51;2.90;;;2.70;;
51459;SDS011;37534;39.772;2.718;2023-04-07T01:57:18;3.08;;;2.70;;
51459;SDS011;37534;39.772;2.718;2023-04-07T01:59:44;5.03;;;3.25;;
51459;SDS011;37534;39.772;2.718;2023-04-07T02:02:10;6.00;;;3.35;;
51459;SDS011;37534;39.772;2.718;2023-04-07T02:05:11;4.25;;;3.05;;
51459;SDS011;37534;39.772;2.718;2023-04-07T02:07:53;6.57;;;3.60;;
51459;SDS011;37534;39.772;2.718;2023-04-07T02:10:23;4.38;;;3.53;;
51459;SDS011;37534;39.772;2.718;2023-04-07T02:12:51;4.95;;;3.10;;
51459;SDS011;37534;39.772;2.718;2023-04-07T02:15:17;6.25;;;3.60;;
51459;SDS011;37534;39.772;2.718;2023-04-07T02:17:45;4.03;;;3.20;;
51459;SDS011;37534;39.772;2.718;2023-04-07T02:20:14;3.50;;;2.92;;
51459;SDS011;37534;39.772;2.718;2023-04-07T02:22:41;6.15;;;3.30;;
51459;SDS011;37534;39.772;2.718;2023-04-07T02:25:24;3.38;;;3.13;;
51459;SDS011;37534;39.772;2.718;2023-04-07T02:27:52;3.90;;;3.20;;
51459;SDS011;37534;39.772;2.718;2023-04-07T02:30:19;3.08;;;2.78;;
51459;SDS011;37534;39.772;2.718;2023-04-07T02:32:44;2.35;;;2.15;;
51459;SDS011;37534;39.772;2.718;2023-04-07T02:35:10;3.78;;;2.40;;
51459;SDS011;37534;39.772;2.718;2023-04-07T02:37:37;3.63;;;2.53;;
51459;SDS011;37534;39.772;2.718;2023-04-07T02:40:03;2.67;;;2.35;;
51459;SDS011;37534;39.772;2.718;2023-04-07T02:42:30;8.50;;;2.80;;
51459;SDS011;37534;39.772;2.718;2023-04-07T02:44:55;8.82;;;3.92;;
51459;SDS011;37534;39.772;2.718;2023-04-07T02:47:21;3.33;;;3.03;;
51459;SDS011;37534;39.772;2.718;2023-04-07T02:49:46;11.68;;;3.85;;
51459;SDS011;37534;39.772;2.718;2023-04-07T02:52:12;3.95;;;2.75;;
51459;SDS011;37534;39.772;2.718;2023-04-07T02:54:37;6.47;;;2.50;;
51459;SDS011;37534;39.772;2.718;2023-04-07T02:57:03;2.67;;;2.10;;
51459;SDS011;37534;39.772;2.718;2023-04-07T02:59:28;4.65;;;2.75;;
51459;SDS011;37534;39.772;2.718;2023-04-07T03:01:54;5.18;;;3.78;;
51459;SDS011;37534;39.772;2.718;2023-04-07T03:04:20;6.88;;;3.40;;
51459;SDS011;37534;39.772;2.718;2023-04-07T03:06:46;4.50;;;3.47;;
51459;SDS011;37534;39.772;2.718;2023-04-07T03:09:12;6.00;;;4.28;;
51459;SDS011;37534;39.772;2.718;2023-04-07T03:11:37;6.65;;;3.08;;
51459;SDS011;37534;39.772;2.718;2023-04-07T03:14:03;2.80;;;2.30;;
51459;SDS011;37534;39.772;2.718;2023-04-07T03:16:28;9.70;;;3.08;;
51459;SDS011;37534;39.772;2.718;2023-04-07T03:18:54;4.45;;;2.80;;
51459;SDS011;37534;39.772;2.718;2023-04-07T03:21:19;3.60;;;3.30;;
51459;SDS011;37534;39.772;2.718;2023-04-07T03:23:45;3.80;;;2.15;;
51459;SDS011;37534;39.772;2.718;2023-04-07T03:26:11;4.18;;;2.50;;
51459;SDS011;37534;39.772;2.718;2023-04-07T03:28:36;2.17;;;1.98;;
51459;SDS011;37534;39.772;2.718;2023-04-07T03:31:02;3.90;;;2.10;;
51459;SDS011;37534;39.772;2.718;2023-04-07T03:33:27;2.78;;;2.22;;
51459;SDS011;37534;39.772;2.718;2023-04-07T03:35:53;2.45;;;2.25;;
51459;SDS011;37534;39.772;2.718;2023-04-07T03:38:18;9.25;;;2.95;;
51459;SDS011;37534;39.772;2.718;2023-04-07T03:40:45;2.20;;;2.00;;
51459;SDS011;37534;39.772;2.718;2023-04-07T03:43:11;3.22;;;2.17;;
51459;SDS011;37534;39.772;2.718;2023-04-07T03:45:39;2.05;;;1.70;;
51459;SDS011;37534;39.772;2.718;2023-04-07T03:48:05;2.72;;;2.53;;
51459;SDS011;37534;39.772;2.718;2023-04-07T03:50:34;1.88;;;1.58;;
51459;SDS011;37534;39.772;2.718;2023-04-07T03:53:00;2.17;;;1.92;;
51459;SDS011;37534;39.772;2.718;2023-04-07T03:55:26;3.22;;;2.15;;
51459;SDS011;37534;39.772;2.718;2023-04-07T03:57:51;9.77;;;2.53;;
51459;SDS011;37534;39.772;2.718;2023-04-07T04:00:17;3.00;;;2.20;;
51459;SDS011;37534;39.772;2.718;2023-04-07T04:02:43;3.17;;;2.53;;
51459;SDS011;37534;39.772;2.718;2023-04-07T04:05:08;2.78;;;1.83;;
51459;SDS011;37534;39.772;2.718;2023-04-07T04:07:34;1.85;;;1.70;;
51459;SDS011;37534;39.772;2.718;2023-04-07T04:10:00;2.60;;;2.40;;
51459;SDS011;37534;39.772;2.718;2023-04-07T04:12:25;2.45;;;2.25;;
51459;SDS011;37534;39.772;2.718;2023-04-07T04:14:51;2.35;;;2.15;;
51459;SDS011;37534;39.772;2.718;2023-04-07T04:17:17;2.78;;;2.47;;
51459;SDS011;37534;39.772;2.718;2023-04-07T04:19:42;3.28;;;2.50;;
51459;SDS011;37534;39.772;2.718;2023-04-07T04:22:08;1.95;;;1.85;;
51459;SDS011;37534;39.772;2.718;2023-04-07T04:24:33;4.07;;;2.20;;
51459;SDS011;37534;39.772;2.718;2023-04-07T04:26:59;2.45;;;2.25;;
51459;SDS011;37534;39.772;2.718;2023-04-07T04:29:26;2.33;;;2.13;;
51459;SDS011;37534;39.772;2.718;2023-04-07T04:31:51;2.50;;;2.30;;
51459;SDS011;37534;39.772;2.718;2023-04-07T04:34:17;3.00;;;2.08;;
51459;SDS011;37534;39.772;2.718;2023-04-07T04:36:42;2.30;;;2.03;;
51459;SDS011;37534;39.772;2.718;2023-04-07T04:39:08;3.90;;;2.75;;
51459;SDS011;37534;39.772;2.718;2023-04-07T04:41:34;2.35;;;2.00;;
51459;SDS011;37534;39.772;2.718;2023-04-07T04:43:59;1.88;;;1.73;;
51459;SDS011;37534;39.772;2.718;2023-04-07T04:46:25;3.53;;;2.35;;
51459;SDS011;37534;39.772;2.718;2023-04-07T04:48:51;6.05;;;2.58;;
51459;SDS011;37534;39.772;2.718;2023-04-07T04:51:18;2.53;;;2.08;;
51459;SDS011;37534;39.772;2.718;2023-04-07T04:53:44;3.67;;;2.25;;
51459;SDS011;37534;39.772;2.718;2023-04-07T04:56:09;5.03;;;2.00;;
51459;SDS011;37534;39.772;2.718;2023-04-07T04:58:36;3.05;;;2.30;;
51459;SDS011;37534;39.772;2.718;2023-04-07T05:01:04;3.33;;;1.85;;
51459;SDS011;37534;39.772;2.718;2023-04-07T05:03:30;1.63;;;1.52;;
51459;SDS011;37534;39.772;2.718;2023-04-07T05:05:55;3.00;;;2.15;;
51459;SDS011;37534;39.772;2.718;2023-04-07T05:08:21;4.03;;;1.80;;
51459;SDS011;37534;39.772;2.718;2023-04-07T05:10:47;1.90;;;1.80;;
51459;SDS011;37534;39.772;2.718;2023-04-07T05:13:12;2.38;;;2.13;;
51459;SDS011;37534;39.772;2.718;2023-04-07T05:15:39;2.63;;;2.17;;
51459;SDS011;37534;39.772;2.718;2023-04-07T05:18:05;2.38;;;2.15;;
51459;SDS011;37534;39.772;2.718;2023-04-07T05:20:31;4.28;;;1.95;;
51459;SDS011;37534;39.772;2.718;2023-04-07T05:22:56;2.20;;;2.05;;
51459;SDS011;37534;39.772;2.718;2023-04-07T05:25:22;2.70;;;2.20;;
51459;SDS011;37534;39.772;2.718;2023-04-07T05:27:48;8.00;;;3.20;;
51459;SDS011;37534;39.772;2.718;2023-04-07T05:30:14;2.03;;;1.92;;
51459;SDS011;37534;39.772;2.718;2023-04-07T05:32:40;3.58;;;2.03;;
51459;SDS011;37534;39.772;2.718;2023-04-07T05:35:06;3.00;;;2.55;;
51459;SDS011;37534;39.772;2.718;2023-04-07T05:37:31;3.08;;;2.50;;
51459;SDS011;37534;39.772;2.718;2023-04-07T05:39:57;3.30;;;2.60;;
51459;SDS011;37534;39.772;2.718;2023-04-07T05:42:23;1.70;;;1.60;;
51459;SDS011;37534;39.772;2.718;2023-04-07T05:44:48;3.53;;;2.20;;
51459;SDS011;37534;39.772;2.718;2023-04-07T05:47:14;2.55;;;2.05;;
51459;SDS011;37534;39.772;2.718;2023-04-07T05:49:40;2.70;;;2.47;;
51459;SDS011;37534;39.772;2.718;2023-04-07T05:52:10;3.88;;;3.50;;
51459;SDS011;37534;39.772;2.718;2023-04-07T05:54:36;3.92;;;2.83;;
51459;SDS011;37534;39.772;2.718;2023-04-07T05:57:04;3.53;;;3.22;;
51459;SDS011;37534;39.772;2.718;2023-04-07T05:59:29;2.25;;;2.05;;
51459;SDS011;37534;39.772;2.718;2023-04-07T06:01:55;3.58;;;2.90;;
51459;SDS011;37534;39.772;2.718;2023-04-07T06:04:20;2.92;;;2.65;;
51459;SDS011;37534;39.772;2.718;2023-04-07T06:06:46;5.45;;;2.35;;
51459;SDS011;37534;39.772;2.718;2023-04-07T06:09:12;3.08;;;2.35;;
51459;SDS011;37534;39.772;2.718;2023-04-07T06:11:37;4.13;;;2.70;;
51459;SDS011;37534;39.772;2.718;2023-04-07T06:14:03;4.28;;;2.42;;
51459;SDS011;37534;39.772;2.718;2023-04-07T06:16:28;4.55;;;2.92;;
51459;SDS011;37534;39.772;2.718;2023-04-07T06:18:53;2.95;;;2.40;;
51459;SDS011;37534;39.772;2.718;2023-04-07T06:21:19;5.57;;;2.92;;
51459;SDS011;37534;39.772;2.718;2023-04-07T06:23:45;14.60;;;3.15;;
51459;SDS011;37534;39.772;2.718;2023-04-07T06:26:11;3.17;;;2.72;;
51459;SDS011;37534;39.772;2.718;2023-04-07T06:28:37;4.72;;;2.80;;
51459;SDS011;37534;39.772;2.718;2023-04-07T06:31:03;6.95;;;3.10;;
51459;SDS011;37534;39.772;2.718;2023-04-07T06:33:28;3.92;;;2.78;;
51459;SDS011;37534;39.772;2.718;2023-04-07T06:35:54;4.13;;;2.42;;
51459;SDS011;37534;39.772;2.718;2023-04-07T06:38:20;4.85;;;2.38;;
51459;SDS011;37534;39.772;2.718;2023-04-07T06:40:46;3.80;;;2.22;;
51459;SDS011;37534;39.772;2.718;2023-04-07T06:43:12;2.63;;;2.08;;
51459;SDS011;37534;39.772;2.718;2023-04-07T06:45:37;1.75;;;1.65;;
51459;SDS011;37534;39.772;2.718;2023-04-07T06:48:03;2.58;;;1.45;;
51459;SDS011;37534;39.772;2.718;2023-04-07T06:50:28;3.38;;;2.08;;
51459;SDS011;37534;39.772;2.718;2023-04-07T06:52:54;2.53;;;2.33;;
51459;SDS011;37534;39.772;2.718;2023-04-07T06:55:19;3.83;;;1.67;;
51459;SDS011;37534;39.772;2.718;2023-04-07T06:57:45;7.15;;;2.13;;
51459;SDS011;37534;39.772;2.718;2023-04-07T07:00:11;3.53;;;1.55;;
51459;SDS011;37534;39.772;2.718;2023-04-07T07:02:37;3.45;;;2.08;;
51459;SDS011;37534;39.772;2.718;2023-04-07T07:05:02;2.38;;;2.17;;
51459;SDS011;37534;39.772;2.718;2023-04-07T07:07:29;1.83;;;1.73;;
51459;SDS011;37534;39.772;2.718;2023-04-07T07:09:55;1.35;;;1.25;;
51459;SDS011;37534;39.772;2.718;2023-04-07T07:12:20;4.10;;;1.80;;
51459;SDS011;37534;39.772;2.718;2023-04-07T07:14:45;2.17;;;1.95;;
51459;SDS011;37534;39.772;2.718;2023-04-07T07:17:11;2.13;;;1.52;;
51459;SDS011;37534;39.772;2.718;2023-04-07T07:19:37;2.60;;;1.85;;
51459;SDS011;37534;39.772;2.718;2023-04-07T07:22:03;4.47;;;2.80;;
51459;SDS011;37534;39.772;2.718;2023-04-07T07:24:29;6.95;;;3.53;;
51459;SDS011;37534;39.772;2.718;2023-04-07T07:26:57;9.18;;;3.53;;
51459;SDS011;37534;39.772;2.718;2023-04-07T07:29:24;2.72;;;2.50;;
51459;SDS011;37534;39.772;2.718;2023-04-07T07:31:50;7.90;;;3.97;;
51459;SDS011;37534;39.772;2.718;2023-04-07T07:34:15;8.05;;;3.63;;
51459;SDS011;37534;39.772;2.718;2023-04-07T07:36:41;3.85;;;2.60;;
51459;SDS011;37534;39.772;2.718;2023-04-07T07:39:06;4.20;;;2.97;;
51459;SDS011;37534;39.772;2.718;2023-04-07T07:41:32;3.03;;;2.70;;
51459;SDS011;37534;39.772;2.718;2023-04-07T07:43:57;8.27;;;5.57;;
51459;SDS011;37534;39.772;2.718;2023-04-07T07:46:23;11.85;;;6.35;;
51459;SDS011;37534;39.772;2.718;2023-04-07T07:48:50;8.25;;;5.47;;
51459;SDS011;37534;39.772;2.718;2023-04-07T07:51:16;13.98;;;8.13;;
51459;SDS011;37534;39.772;2.718;2023-04-07T07:53:42;13.68;;;10.93;;
51459;SDS011;37534;39.772;2.718;2023-04-07T07:56:10;14.05;;;11.18;;
51459;SDS011;37534;39.772;2.718;2023-04-07T07:58:37;15.13;;;12.02;;
51459;SDS011;37534;39.772;2.718;2023-04-07T08:01:02;14.88;;;11.18;;
51459;SDS011;37534;39.772;2.718;2023-04-07T08:03:28;18.33;;;15.07;;
51459;SDS011;37534;39.772;2.718;2023-04-07T08:05:54;16.90;;;14.95;;
51459;SDS011;37534;39.772;2.718;2023-04-07T08:08:20;16.80;;;12.63;;
51459;SDS011;37534;39.772;2.718;2023-04-07T08:10:45;21.10;;;17.92;;
51459;SDS011;37534;39.772;2.718;2023-04-07T08:13:11;24.42;;;14.65;;
51459;SDS011;37534;39.772;2.718;2023-04-07T08:15:38;16.10;;;14.40;;
51459;SDS011;37534;39.772;2.718;2023-04-07T08:18:04;27.10;;;21.00;;
51459;SDS011;37534;39.772;2.718;2023-04-07T08:20:30;16.77;;;15.07;;
51459;SDS011;37534;39.772;2.718;2023-04-07T08:22:56;11.55;;;8.85;;
51459;SDS011;37534;39.772;2.718;2023-04-07T08:25:22;7.53;;;6.85;;
51459;SDS011;37534;39.772;2.718;2023-04-07T08:27:47;7.32;;;6.63;;
51459;SDS011;37534;39.772;2.718;2023-04-07T08:30:13;7.57;;;5.85;;
51459;SDS011;37534;39.772;2.718;2023-04-07T08:32:40;8.35;;;7.22;;
51459;SDS011;37534;39.772;2.718;2023-04-07T08:35:07;16.25;;;12.52;;
51459;SDS011;37534;39.772;2.718;2023-04-07T08:37:33;16.40;;;12.85;;
51459;SDS011;37534;39.772;2.718;2023-04-07T08:40:00;7.53;;;6.82;;
51459;SDS011;37534;39.772;2.718;2023-04-07T08:42:27;6.72;;;4.15;;
51459;SDS011;37534;39.772;2.718;2023-04-07T08:44:55;5.53;;;4.15;;
51459;SDS011;37534;39.772;2.718;2023-04-07T08:47:25;3.95;;;3.60;;
51459;SDS011;37534;39.772;2.718;2023-04-07T08:49:53;3.17;;;2.65;;
51459;SDS011;37534;39.772;2.718;2023-04-07T08:52:24;2.40;;;2.10;;
51459;SDS011;37534;39.772;2.718;2023-04-07T08:54:57;1.85;;;1.75;;
51459;SDS011;37534;39.772;2.718;2023-04-07T08:57:27;1.17;;;1.17;;
51459;SDS011;37534;39.772;2.718;2023-04-07T08:59:55;1.77;;;1.13;;
51459;SDS011;37534;39.772;2.718;2023-04-07T09:02:22;2.83;;;1.45;;
51459;SDS011;37534;39.772;2.718;2023-04-07T09:04:47;5.97;;;1.70;;
51459;SDS011;37534;39.772;2.718;2023-04-07T09:07:13;1.75;;;1.10;;
51459;SDS011;37534;39.772;2.718;2023-04-07T09:09:38;2.45;;;1.60;;
51459;SDS011;37534;39.772;2.718;2023-04-07T09:12:05;1.05;;;0.95;;
51459;SDS011;37534;39.772;2.718;2023-04-07T09:14:30;7.97;;;1.88;;
51459;SDS011;37534;39.772;2.718;2023-04-07T09:16:56;2.45;;;1.50;;
51459;SDS011;37534;39.772;2.718;2023-04-07T09:19:25;1.98;;;1.88;;
51459;SDS011;37534;39.772;2.718;2023-04-07T09:21:51;2.20;;;2.00;;
51459;SDS011;37534;39.772;2.718;2023-04-07T09:24:24;3.65;;;2.53;;
51459;SDS011;37534;39.772;2.718;2023-04-07T09:29:40;1.60;;;1.50;;
51459;SDS011;37534;39.772;2.718;2023-04-07T09:32:07;5.63;;;2.28;;
51459;SDS011;37534;39.772;2.718;2023-04-07T09:34:35;2.90;;;2.35;;
51459;SDS011;37534;39.772;2.718;2023-04-07T09:37:02;2.33;;;2.20;;
51459;SDS011;37534;39.772;2.718;2023-04-07T09:39:28;2.88;;;2.65;;
51459;SDS011;37534;39.772;2.718;2023-04-07T09:41:54;3.40;;;3.10;;
51459;SDS011;37534;39.772;2.718;2023-04-07T09:44:21;2.78;;;2.05;;
51459;SDS011;37534;39.772;2.718;2023-04-07T09:46:51;3.60;;;2.50;;
51459;SDS011;37534;39.772;2.718;2023-04-07T09:49:18;2.05;;;1.92;;
51459;SDS011;37534;39.772;2.718;2023-04-07T09:51:55;1.40;;;1.30;;
51459;SDS011;37534;39.772;2.718;2023-04-07T09:54:34;6.68;;;1.80;;
51459;SDS011;37534;39.772;2.718;2023-04-07T09:57:02;2.72;;;1.55;;
51459;SDS011;37534;39.772;2.718;2023-04-07T09:59:31;3.40;;;1.60;;
51459;SDS011;37534;39.772;2.718;2023-04-07T10:01:58;2.13;;;0.90;;
51459;SDS011;37534;39.772;2.718;2023-04-07T10:04:25;0.77;;;0.70;;
51459;SDS011;37534;39.772;2.718;2023-04-07T10:06:55;1.42;;;1.17;;
51459;SDS011;37534;39.772;2.718;2023-04-07T10:09:22;0.80;;;0.80;;
51459;SDS011;37534;39.772;2.718;2023-04-07T10:11:49;5.80;;;1.05;;
51459;SDS011;37534;39.772;2.718;2023-04-07T10:14:17;2.20;;;1.10;;
51459;SDS011;37534;39.772;2.718;2023-04-07T10:16:43;1.77;;;1.08;;
51459;SDS011;37534;39.772;2.718;2023-04-07T10:19:11;2.58;;;1.13;;
51459;SDS011;37534;39.772;2.718;2023-04-07T10:21:38;1.00;;;0.98;;
51459;SDS011;37534;39.772;2.718;2023-04-07T10:26:50;5.82;;;1.13;;
51459;SDS011;37534;39.772;2.718;2023-04-07T10:29:20;1.40;;;0.70;;
51459;SDS011;37534;39.772;2.718;2023-04-07T10:31:49;2.30;;;0.93;;
51459;SDS011;37534;39.772;2.718;2023-04-07T10:34:16;1.10;;;0.82;;
51459;SDS011;37534;39.772;2.718;2023-04-07T10:39:34;0.98;;;0.98;;
51459;SDS011;37534;39.772;2.718;2023-04-07T10:42:04;1.52;;;0.80;;
51459;SDS011;37534;39.772;2.718;2023-04-07T10:47:06;8.93;;;1.05;;
51459;SDS011;37534;39.772;2.718;2023-04-07T10:49:32;2.70;;;1.38;;
51459;SDS011;37534;39.772;2.718;2023-04-07T10:54:37;0.82;;;0.82;;
51459;SDS011;37534;39.772;2.718;2023-04-07T10:59:32;0.80;;;0.75;;
51459;SDS011;37534;39.772;2.718;2023-04-07T11:04:41;1.63;;;0.93;;
51459;SDS011;37534;39.772;2.718;2023-04-07T11:07:07;1.58;;;1.20;;
51459;SDS011;37534;39.772;2.718;2023-04-07T11:09:33;1.63;;;0.82;;
51459;SDS011;37534;39.772;2.718;2023-04-07T11:11:59;3.78;;;1.45;;
51459;SDS011;37534;39.772;2.718;2023-04-07T11:14:31;2.85;;;2.35;;
51459;SDS011;37534;39.772;2.718;2023-04-07T11:16:58;1.33;;;0.82;;
51459;SDS011;37534;39.772;2.718;2023-04-07T11:19:25;1.65;;;0.93;;
51459;SDS011;37534;39.772;2.718;2023-04-07T11:22:12;1.88;;;0.90;;
51459;SDS011;37534;39.772;2.718;2023-04-07T11:24:44;2.92;;;0.95;;
51459;SDS011;37534;39.772;2.718;2023-04-07T11:27:14;1.98;;;0.90;;
51459;SDS011;37534;39.772;2.718;2023-04-07T11:29:40;0.95;;;0.63;;
51459;SDS011;37534;39.772;2.718;2023-04-07T11:32:07;1.45;;;0.88;;
51459;SDS011;37534;39.772;2.718;2023-04-07T11:34:35;1.10;;;0.75;;
51459;SDS011;37534;39.772;2.718;2023-04-07T11:37:18;0.90;;;0.90;;
51459;SDS011;37534;39.772;2.718;2023-04-07T11:39:50;1.88;;;0.90;;
51459;SDS011;37534;39.772;2.718;2023-04-07T11:42:30;1.25;;;0.70;;
51459;SDS011;37534;39.772;2.718;2023-04-07T11:44:59;4.88;;;0.82;;
51459;SDS011;37534;39.772;2.718;2023-04-07T11:47:37;1.48;;;0.90;;
51459;SDS011;37534;39.772;2.718;2023-04-07T11:50:04;1.45;;;1.15;;
51459;SDS011;37534;39.772;2.718;2023-04-07T11:52:52;1.23;;;0.60;;
51459;SDS011;37534;39.772;2.718;2023-04-07T11:55:17;1.85;;;0.93;;
51459;SDS011;37534;39.772;2.718;2023-04-07T11:57:48;1.42;;;1.02;;
51459;SDS011;37534;39.772;2.718;2023-04-07T12:00:18;2.35;;;2.05;;
51459;SDS011;37534;39.772;2.718;2023-04-07T12:02:45;2.28;;;1.60;;
51459;SDS011;37534;39.772;2.718;2023-04-07T12:05:11;1.38;;;1.13;;
51459;SDS011;37534;39.772;2.718;2023-04-07T12:07:37;0.63;;;0.63;;
51459;SDS011;37534;39.772;2.718;2023-04-07T12:10:17;0.80;;;0.80;;
51459;SDS011;37534;39.772;2.718;2023-04-07T12:12:44;0.70;;;0.70;;
51459;SDS011;37534;39.772;2.718;2023-04-07T12:15:11;1.58;;;1.15;;
51459;SDS011;37534;39.772;2.718;2023-04-07T12:17:37;1.40;;;0.73;;
51459;SDS011;37534;39.772;2.718;2023-04-07T12:20:03;4.53;;;0.95;;
51459;SDS011;37534;39.772;2.718;2023-04-07T12:22:29;0.90;;;0.70;;
51459;SDS011;37534;39.772;2.718;2023-04-07T12:24:54;3.03;;;1.20;;
51459;SDS011;37534;39.772;2.718;2023-04-07T12:27:20;0.95;;;0.90;;
51459;SDS011;37534;39.772;2.718;2023-04-07T12:29:45;0.63;;;0.63;;
51459;SDS011;37534;39.772;2.718;2023-04-07T12:32:11;1.90;;;0.90;;
51459;SDS011;37534;39.772;2.718;2023-04-07T12:34:37;0.20;;;0.20;;
51459;SDS011;37534;39.772;2.718;2023-04-07T12:37:03;1.02;;;0.70;;
51459;SDS011;37534;39.772;2.718;2023-04-07T12:39:28;1.45;;;0.68;;
51459;SDS011;37534;39.772;2.718;2023-04-07T12:41:54;1.10;;;0.88;;
51459;SDS011;37534;39.772;2.718;2023-04-07T12:44:22;1.08;;;0.70;;
51459;SDS011;37534;39.772;2.718;2023-04-07T12:46:47;4.28;;;0.68;;
51459;SDS011;37534;39.772;2.718;2023-04-07T12:49:13;0.93;;;0.73;;
51459;SDS011;37534;39.772;2.718;2023-04-07T12:51:38;6.53;;;0.73;;
51459;SDS011;37534;39.772;2.718;2023-04-07T12:54:04;0.60;;;0.60;;
51459;SDS011;37534;39.772;2.718;2023-04-07T12:56:30;1.45;;;0.90;;
51459;SDS011;37534;39.772;2.718;2023-04-07T12:58:55;1.35;;;1.15;;
51459;SDS011;37534;39.772;2.718;2023-04-07T13:01:21;1.17;;;0.60;;
51459;SDS011;37534;39.772;2.718;2023-04-07T13:03:46;0.70;;;0.57;;
51459;SDS011;37534;39.772;2.718;2023-04-07T13:06:12;3.53;;;0.93;;
51459;SDS011;37534;39.772;2.718;2023-04-07T13:08:38;0.60;;;0.60;;
51459;SDS011;37534;39.772;2.718;2023-04-07T13:11:04;1.85;;;1.17;;
51459;SDS011;37534;39.772;2.718;2023-04-07T13:13:30;0.65;;;0.65;;
51459;SDS011;37534;39.772;2.718;2023-04-07T13:15:56;0.98;;;0.70;;
51459;SDS011;37534;39.772;2.718;2023-04-07T13:18:21;4.35;;;1.00;;
51459;SDS011;37534;39.772;2.718;2023-04-07T13:20:47;2.50;;;0.68;;
51459;SDS011;37534;39.772;2.718;2023-04-07T13:23:13;3.35;;;1.02;;
51459;SDS011;37534;39.772;2.718;2023-04-07T13:25:39;0.52;;;0.50;;
51459;SDS011;37534;39.772;2.718;2023-04-07T13:28:05;2.88;;;1.30;;
51459;SDS011;37534;39.772;2.718;2023-04-07T13:30:31;1.40;;;1.30;;
51459;SDS011;37534;39.772;2.718;2023-04-07T13:32:57;1.23;;;1.13;;
51459;SDS011;37534;39.772;2.718;2023-04-07T13:35:22;1.23;;;0.95;;
51459;SDS011;37534;39.772;2.718;2023-04-07T13:37:48;2.33;;;1.52;;
51459;SDS011;37534;39.772;2.718;2023-04-07T13:40:13;1.50;;;1.35;;
51459;SDS011;37534;39.772;2.718;2023-04-07T13:42:39;1.40;;;1.30;;
51459;SDS011;37534;39.772;2.718;2023-04-07T13:45:05;2.20;;;0.90;;
51459;SDS011;37534;39.772;2.718;2023-04-07T13:47:31;2.72;;;0.93;;
51459;SDS011;37534;39.772;2.718;2023-04-07T13:50:00;1.20;;;0.80;;
51459;SDS011;37534;39.772;2.718;2023-04-07T13:52:26;2.42;;;0.88;;
51459;SDS011;37534;39.772;2.718;2023-04-07T13:54:52;1.75;;;0.70;;
51459;SDS011;37534;39.772;2.718;2023-04-07T13:57:18;4.25;;;1.08;;
51459;SDS011;37534;39.772;2.718;2023-04-07T13:59:47;1.02;;;0.85;;
51459;SDS011;37534;39.772;2.718;2023-04-07T14:02:16;0.77;;;0.70;;
51459;SDS011;37534;39.772;2.718;2023-04-07T14:04:42;0.63;;;0.63;;
51459;SDS011;37534;39.772;2.718;2023-04-07T14:07:08;2.50;;;1.08;;
51459;SDS011;37534;39.772;2.718;2023-04-07T14:09:33;1.63;;;0.80;;
51459;SDS011;37534;39.772;2.718;2023-04-07T14:11:59;1.15;;;0.70;;
51459;SDS011;37534;39.772;2.718;2023-04-07T14:14:25;1.35;;;1.00;;
51459;SDS011;37534;39.772;2.718;2023-04-07T14:16:50;2.97;;;1.02;;
51459;SDS011;37534;39.772;2.718;2023-04-07T14:19:19;2.42;;;0.90;;
51459;SDS011;37534;39.772;2.718;2023-04-07T14:21:45;2.00;;;1.10;;
51459;SDS011;37534;39.772;2.718;2023-04-07T14:24:10;1.20;;;0.80;;
51459;SDS011;37534;39.772;2.718;2023-04-07T14:26:36;1.50;;;1.00;;
51459;SDS011;37534;39.772;2.718;2023-04-07T14:29:01;4.85;;;3.95;;
51459;SDS011;37534;39.772;2.718;2023-04-07T14:31:27;2.38;;;1.13;;
51459;SDS011;37534;39.772;2.718;2023-04-07T14:33:53;1.70;;;0.77;;
51459;SDS011;37534;39.772;2.718;2023-04-07T14:36:19;0.90;;;0.73;;
51459;SDS011;37534;39.772;2.718;2023-04-07T14:38:45;2.25;;;0.77;;
51459;SDS011;37534;39.772;2.718;2023-04-07T14:41:11;2.08;;;0.60;;
51459;SDS011;37534;39.772;2.718;2023-04-07T14:43:37;4.97;;;1.45;;
51459;SDS011;37534;39.772;2.718;2023-04-07T14:46:03;4.93;;;1.77;;
51459;SDS011;37534;39.772;2.718;2023-04-07T14:48:29;1.00;;;0.90;;
51459;SDS011;37534;39.772;2.718;2023-04-07T14:50:56;6.75;;;1.60;;
51459;SDS011;37534;39.772;2.718;2023-04-07T14:53:22;6.03;;;1.38;;
51459;SDS011;37534;39.772;2.718;2023-04-07T14:55:47;9.73;;;2.00;;
51459;SDS011;37534;39.772;2.718;2023-04-07T14:58:13;0.98;;;0.70;;
51459;SDS011;37534;39.772;2.718;2023-04-07T15:00:38;1.45;;;1.15;;
51459;SDS011;37534;39.772;2.718;2023-04-07T15:03:04;5.32;;;1.60;;
51459;SDS011;37534;39.772;2.718;2023-04-07T15:05:29;3.40;;;1.58;;
51459;SDS011;37534;39.772;2.718;2023-04-07T15:07:55;5.43;;;0.80;;
51459;SDS011;37534;39.772;2.718;2023-04-07T15:10:21;1.95;;;1.15;;
51459;SDS011;37534;39.772;2.718;2023-04-07T15:12:46;8.35;;;1.00;;
51459;SDS011;37534;39.772;2.718;2023-04-07T15:15:13;1.27;;;1.17;;